createdAt,value
2023-05-18T00:02:19.246Z,2.95
2023-05-18T00:04:45.990Z,3.45
2023-05-18T00:07:15.669Z,3.28
2023-05-18T00:09:42.156Z,4.93
2023-05-18T00:12:10.059Z,3.58
2023-05-18T00:14:36.755Z,3.13
2023-05-18T00:17:03.458Z,3.67
2023-05-18T00:19:30.328Z,3.28
2023-05-18T00:21:57.307Z,4.07
2023-05-18T00:24:26.171Z,3.55
2023-05-18T00:26:52.836Z,3.88
2023-05-18T00:29:19.379Z,3.33
2023-05-18T00:31:46.074Z,3.40
2023-05-18T00:34:13.881Z,4.25
2023-05-18T00:36:40.915Z,3.03
2023-05-18T00:39:07.919Z,2.88
2023-05-18T00:41:39.018Z,3.97
2023-05-18T00:44:05.755Z,4.65
2023-05-18T00:46:32.403Z,3.22
2023-05-18T00:48:59.123Z,4.25
2023-05-18T00:51:26.151Z,3.55
2023-05-18T00:53:53.515Z,3.58
2023-05-18T00:56:23.607Z,3.28
2023-05-18T00:58:52.250Z,4.38
2023-05-18T01:01:19.559Z,3.42
2023-05-18T01:03:46.113Z,3.65
2023-05-18T01:06:14.836Z,3.33
2023-05-18T01:08:42.997Z,3.00
2023-05-18T01:11:19.867Z,3.53
2023-05-18T01:14:05.463Z,3.08
2023-05-18T01:16:41.734Z,3.65
2023-05-18T01:19:18.147Z,3.95
2023-05-18T01:21:55.097Z,3.00
2023-05-18T01:24:26.048Z,3.58
2023-05-18T01:31:50.864Z,3.72
2023-05-18T01:34:18.741Z,3.65
2023-05-18T01:36:45.471Z,3.70
2023-05-18T01:39:12.160Z,3.33
2023-05-18T01:41:42.027Z,4.10
2023-05-18T01:44:15.938Z,5.50
2023-05-18T01:46:42.397Z,4.55
2023-05-18T01:49:27.725Z,4.30
2023-05-18T01:51:55.765Z,4.90
2023-05-18T01:54:22.866Z,3.53
2023-05-18T01:56:50.813Z,4.13
2023-05-18T01:59:17.540Z,5.03
2023-05-18T02:01:45.290Z,4.07
2023-05-18T02:04:12.069Z,5.70
2023-05-18T02:06:38.668Z,3.33
2023-05-18T02:09:05.627Z,5.00
2023-05-18T02:11:32.248Z,3.55
2023-05-18T02:13:59.056Z,3.92
2023-05-18T02:16:26.898Z,4.72
2023-05-18T02:18:53.807Z,4.70
2023-05-18T02:21:20.493Z,6.72
2023-05-18T02:23:47.006Z,4.07
2023-05-18T02:26:13.605Z,3.63
2023-05-18T02:28:40.513Z,3.65
2023-05-18T02:31:08.120Z,3.72
2023-05-18T02:33:39.887Z,3.78
2023-05-18T02:36:18.500Z,4.72
2023-05-18T02:38:45.046Z,3.92
2023-05-18T02:41:12.192Z,3.95
2023-05-18T02:43:38.752Z,4.55
2023-05-18T02:46:05.364Z,3.22
2023-05-18T02:48:31.894Z,3.65
2023-05-18T02:50:58.993Z,3.88
2023-05-18T02:53:26.778Z,3.42
2023-05-18T02:55:59.360Z,3.65
2023-05-18T02:58:25.970Z,4.13
2023-05-18T03:00:55.154Z,4.25
2023-05-18T03:03:21.989Z,3.72
2023-05-18T03:05:48.624Z,3.97
2023-05-18T03:08:15.166Z,3.28
2023-05-18T03:10:41.629Z,4.40
2023-05-18T03:13:08.139Z,5.00
2023-05-18T03:15:34.762Z,4.28
2023-05-18T03:18:01.425Z,5.00
2023-05-18T03:20:29.929Z,4.88
2023-05-18T03:22:57.115Z,3.83
2023-05-18T03:25:25.718Z,3.67
2023-05-18T03:27:55.246Z,4.13
2023-05-18T03:30:21.701Z,5.43
2023-05-18T03:32:48.470Z,3.47
2023-05-18T03:35:15.595Z,3.95
2023-05-18T03:37:42.207Z,4.57
2023-05-18T03:40:11.098Z,3.85
2023-05-18T03:42:38.005Z,4.55
2023-05-18T03:45:04.789Z,3.70
2023-05-18T03:47:31.319Z,3.83
2023-05-18T03:49:57.822Z,3.60
2023-05-18T03:52:24.500Z,5.45
2023-05-18T03:54:51.436Z,4.57
2023-05-18T03:57:18.360Z,4.10
2023-05-18T03:59:45.642Z,5.07
2023-05-18T04:02:16.799Z,5.47
2023-05-18T04:04:46.002Z,5.25
2023-05-18T04:07:14.269Z,3.92
2023-05-18T04:09:42.622Z,3.80
2023-05-18T04:12:09.201Z,4.38
2023-05-18T04:14:36.022Z,3.70
2023-05-18T04:17:05.120Z,3.47
2023-05-18T04:19:32.944Z,5.65
2023-05-18T04:21:59.772Z,5.22
2023-05-18T04:24:29.121Z,5.03
2023-05-18T04:26:56.190Z,3.58
2023-05-18T04:29:22.662Z,4.38
2023-05-18T04:31:49.159Z,4.55
2023-05-18T04:34:17.951Z,4.47
2023-05-18T04:36:45.135Z,3.88
2023-05-18T04:39:12.345Z,3.75
2023-05-18T04:41:42.336Z,3.80
2023-05-18T04:44:09.587Z,4.00
2023-05-18T04:46:40.759Z,5.00
2023-05-18T04:49:07.227Z,4.00
2023-05-18T04:51:34.589Z,3.83
2023-05-18T04:54:03.187Z,4.55
2023-05-18T04:56:29.973Z,4.95
2023-05-18T04:58:59.488Z,3.35
2023-05-18T05:01:26.144Z,3.55
2023-05-18T05:03:52.754Z,4.65
2023-05-18T05:06:19.335Z,3.95
2023-05-18T05:08:46.151Z,3.70
2023-05-18T05:11:12.638Z,5.28
2023-05-18T05:13:39.168Z,3.88
2023-05-18T05:16:06.111Z,4.28
2023-05-18T05:18:32.629Z,4.60
2023-05-18T05:21:01.772Z,4.53
2023-05-18T05:23:28.314Z,4.40
2023-05-18T05:25:54.801Z,4.75
2023-05-18T05:28:21.280Z,4.07
2023-05-18T05:30:47.768Z,3.22
2023-05-18T05:33:14.422Z,3.42
2023-05-18T05:35:41.087Z,5.18
2023-05-18T05:38:07.712Z,6.05
2023-05-18T05:40:34.283Z,3.35
2023-05-18T05:43:00.822Z,3.78
2023-05-18T05:45:28.934Z,3.70
2023-05-18T05:47:55.931Z,4.40
2023-05-18T05:50:22.520Z,4.65
2023-05-18T05:52:49.030Z,3.88
2023-05-18T05:55:15.991Z,3.72
2023-05-18T05:57:42.977Z,3.80
2023-05-18T06:00:10.633Z,3.90
2023-05-18T06:02:37.887Z,5.15
2023-05-18T06:05:05.060Z,3.60
2023-05-18T06:07:31.659Z,5.53
2023-05-18T06:09:58.133Z,6.43
2023-05-18T06:12:24.714Z,4.28
2023-05-18T06:14:57.415Z,4.25
2023-05-18T06:17:27.501Z,3.22
2023-05-18T06:19:54.761Z,4.97
2023-05-18T06:22:21.244Z,3.35
2023-05-18T06:24:47.723Z,4.88
2023-05-18T06:27:14.393Z,4.18
2023-05-18T06:29:40.894Z,2.97
2023-05-18T06:32:07.816Z,3.20
2023-05-18T06:34:34.341Z,4.10
2023-05-18T06:37:00.858Z,4.28
2023-05-18T06:39:27.402Z,4.13
2023-05-18T06:41:53.877Z,3.72
2023-05-18T06:44:20.488Z,2.63
2023-05-18T06:46:47.732Z,3.70
2023-05-18T06:49:14.560Z,3.00
2023-05-18T06:51:42.961Z,3.70
2023-05-18T06:54:10.623Z,3.10
2023-05-18T06:56:37.140Z,3.15
2023-05-18T06:59:03.643Z,3.25
2023-05-18T07:01:30.149Z,2.95
2023-05-18T07:03:56.740Z,4.20
2023-05-18T07:06:23.253Z,3.85
2023-05-18T07:08:49.756Z,3.72
2023-05-18T07:11:16.386Z,3.17
2023-05-18T07:13:42.988Z,3.75
2023-05-18T07:16:09.508Z,3.38
2023-05-18T07:18:36.169Z,4.45
2023-05-18T07:21:02.734Z,3.85
2023-05-18T07:23:29.295Z,5.25
2023-05-18T07:25:57.502Z,3.13
2023-05-18T07:28:24.063Z,4.10
2023-05-18T07:30:50.559Z,2.85
2023-05-18T07:33:17.157Z,4.95
2023-05-18T07:35:43.722Z,4.32
2023-05-18T07:38:10.173Z,4.28
2023-05-18T07:40:36.665Z,3.35
2023-05-18T07:43:03.148Z,3.03
2023-05-18T07:45:29.898Z,2.72
2023-05-18T07:47:57.759Z,3.65
2023-05-18T07:50:24.317Z,3.65
2023-05-18T07:52:50.850Z,3.30
2023-05-18T07:55:17.596Z,3.00
2023-05-18T07:57:44.235Z,3.45
2023-05-18T08:00:11.420Z,3.75
2023-05-18T08:02:38.968Z,2.70
2023-05-18T08:05:05.796Z,2.90
2023-05-18T08:07:33.041Z,3.17
2023-05-18T08:09:59.522Z,3.78
2023-05-18T08:12:26.311Z,3.15
2023-05-18T08:14:52.895Z,2.65
2023-05-18T08:17:19.820Z,2.20
2023-05-18T08:19:47.507Z,3.25
2023-05-18T08:22:16.726Z,3.15
2023-05-18T08:24:43.318Z,3.50
2023-05-18T08:27:11.445Z,2.70
2023-05-18T08:29:38.023Z,2.58
2023-05-18T08:32:10.496Z,3.60
2023-05-18T08:34:37.812Z,4.18
2023-05-18T08:37:04.585Z,3.08
2023-05-18T08:39:32.096Z,2.20
2023-05-18T08:42:03.453Z,3.83
2023-05-18T08:44:40.831Z,2.70
2023-05-18T08:47:11.418Z,3.15
2023-05-18T08:49:38.205Z,2.47
2023-05-18T08:52:05.065Z,1.92
2023-05-18T08:54:36.399Z,3.05
2023-05-18T08:57:04.683Z,2.17
2023-05-18T08:59:31.943Z,2.80
2023-05-18T09:01:58.650Z,2.20
2023-05-18T09:04:27.179Z,2.40
2023-05-18T09:06:54.553Z,2.03
2023-05-18T09:09:22.173Z,1.98
2023-05-18T09:11:49.862Z,1.60
2023-05-18T09:14:16.472Z,1.75
2023-05-18T09:16:42.988Z,1.88
2023-05-18T09:19:10.709Z,2.25
2023-05-18T09:21:37.358Z,2.38
2023-05-18T09:24:04.222Z,1.90
2023-05-18T09:26:30.997Z,2.80
2023-05-18T09:28:59.431Z,2.95
2023-05-18T09:31:27.552Z,1.70
2023-05-18T09:33:54.169Z,1.83
2023-05-18T09:36:24.585Z,2.50
2023-05-18T09:38:51.721Z,1.63
2023-05-18T09:41:18.704Z,1.75
2023-05-18T09:43:46.434Z,1.80
2023-05-18T09:46:13.832Z,1.88
2023-05-18T09:48:47.341Z,1.95
2023-05-18T09:51:16.862Z,1.90
2023-05-18T09:53:47.813Z,2.30
2023-05-18T09:56:17.316Z,1.90
2023-05-18T09:58:43.802Z,2.05
2023-05-18T10:01:10.364Z,2.42
2023-05-18T10:03:37.719Z,1.50
2023-05-18T10:06:10.261Z,2.33
2023-05-18T10:08:37.426Z,1.92
2023-05-18T10:11:04.124Z,2.38
2023-05-18T10:13:31.894Z,1.55
2023-05-18T10:15:59.326Z,2.15
2023-05-18T10:18:29.858Z,1.75
2023-05-18T10:21:00.356Z,1.67
2023-05-18T10:23:30.694Z,2.38
2023-05-18T10:25:57.302Z,1.47
2023-05-18T10:28:27.670Z,1.73
2023-05-18T10:30:55.700Z,1.83
2023-05-18T10:33:29.465Z,1.55
2023-05-18T10:35:56.961Z,2.10
2023-05-18T10:38:24.522Z,1.70
2023-05-18T10:40:52.296Z,1.58
2023-05-18T10:43:21.935Z,1.10
2023-05-18T10:45:52.916Z,1.80
2023-05-18T10:48:19.989Z,2.05
2023-05-18T10:50:48.056Z,1.00
2023-05-18T10:53:15.765Z,1.10
2023-05-18T10:55:42.236Z,1.60
2023-05-18T10:58:12.376Z,0.80
2023-05-18T11:00:40.125Z,0.80
2023-05-18T11:03:13.644Z,0.90
2023-05-18T11:05:41.161Z,1.15
2023-05-18T11:08:08.086Z,1.02
2023-05-18T11:10:38.424Z,1.20
2023-05-18T11:13:07.118Z,1.08
2023-05-18T11:15:54.111Z,1.60
2023-05-18T11:18:21.277Z,1.30
2023-05-18T11:20:48.516Z,1.85
2023-05-18T11:23:16.304Z,2.00
2023-05-18T11:25:43.959Z,1.80
2023-05-18T11:28:11.883Z,1.65
2023-05-18T11:30:42.504Z,1.77
2023-05-18T11:33:17.609Z,1.83
2023-05-18T11:35:56.039Z,1.70
2023-05-18T11:38:23.279Z,2.08
2023-05-18T11:40:52.666Z,2.30
2023-05-18T11:43:25.651Z,1.77
2023-05-18T11:45:58.782Z,1.63
2023-05-18T11:48:27.409Z,2.05
2023-05-18T11:50:55.305Z,2.00
2023-05-18T11:53:25.801Z,1.48
2023-05-18T11:55:53.173Z,2.40
2023-05-18T11:58:20.656Z,1.70
2023-05-18T12:00:50.863Z,1.73
2023-05-18T12:03:17.810Z,2.10
2023-05-18T12:05:49.493Z,2.03
2023-05-18T12:08:17.866Z,2.00
2023-05-18T12:10:44.797Z,1.58
2023-05-18T12:13:11.327Z,1.70
2023-05-18T12:15:38.119Z,2.10
2023-05-18T12:18:04.884Z,2.35
2023-05-18T12:20:31.630Z,2.05
2023-05-18T12:22:58.458Z,1.85
2023-05-18T12:25:25.696Z,1.92
2023-05-18T12:27:53.036Z,2.78
2023-05-18T12:30:20.620Z,1.70
2023-05-18T12:32:57.117Z,1.65
2023-05-18T12:35:24.217Z,1.70
2023-05-18T12:37:50.780Z,1.73
2023-05-18T12:40:18.396Z,2.00
2023-05-18T12:42:55.241Z,1.65
2023-05-18T12:45:23.007Z,2.00
2023-05-18T12:47:54.446Z,1.67
2023-05-18T12:50:21.952Z,1.52
2023-05-18T12:52:48.992Z,1.83
2023-05-18T12:55:21.936Z,1.80
2023-05-18T12:58:02.298Z,2.28
2023-05-18T13:00:36.005Z,1.50
2023-05-18T13:03:07.228Z,1.67
2023-05-18T13:05:34.274Z,1.40
2023-05-18T13:08:01.098Z,1.80
2023-05-18T13:10:30.330Z,2.00
2023-05-18T13:13:01.492Z,1.35
2023-05-18T13:15:32.583Z,1.73
2023-05-18T13:18:00.676Z,1.60
2023-05-18T13:20:42.994Z,1.20
2023-05-18T13:23:10.973Z,1.80
2023-05-18T13:25:37.659Z,1.33
2023-05-18T13:28:04.721Z,1.45
2023-05-18T13:30:31.675Z,1.40
2023-05-18T13:32:59.270Z,1.50
2023-05-18T13:35:25.892Z,1.83
2023-05-18T13:37:52.587Z,1.25
2023-05-18T13:40:20.059Z,1.45
2023-05-18T13:42:46.800Z,1.08
2023-05-18T13:45:15.883Z,1.20
2023-05-18T13:47:43.433Z,1.45
2023-05-18T13:50:10.238Z,1.48
2023-05-18T13:52:36.978Z,1.00
2023-05-18T13:55:06.758Z,0.90
2023-05-18T13:57:33.252Z,0.90
2023-05-18T14:00:03.763Z,1.38
2023-05-18T14:04:56.872Z,1.10
2023-05-18T14:07:24.452Z,1.10
2023-05-18T14:09:50.989Z,1.00
2023-05-18T14:12:17.641Z,1.00
2023-05-18T14:14:45.407Z,1.15
2023-05-18T14:17:13.915Z,1.38
2023-05-18T14:19:40.810Z,1.10
2023-05-18T14:22:07.366Z,1.50
2023-05-18T14:24:33.883Z,0.90
2023-05-18T14:27:00.434Z,1.13
2023-05-18T14:29:26.899Z,0.93
2023-05-18T14:31:53.374Z,1.05
2023-05-18T14:34:19.884Z,0.90
2023-05-18T14:36:46.553Z,0.90
2023-05-18T14:39:14.053Z,1.60
2023-05-18T14:41:40.885Z,1.17
2023-05-18T14:44:11.116Z,0.88
2023-05-18T14:46:37.746Z,1.13
2023-05-18T14:49:04.297Z,1.17
2023-05-18T14:51:30.816Z,1.13
2023-05-18T14:54:02.677Z,1.15
2023-05-18T14:56:29.220Z,1.13
2023-05-18T14:58:56.032Z,0.90
2023-05-18T15:01:22.908Z,0.90
2023-05-18T15:03:49.690Z,1.17
2023-05-18T15:06:16.235Z,1.02
2023-05-18T15:08:42.707Z,1.33
2023-05-18T15:11:09.158Z,1.10
2023-05-18T15:13:35.701Z,1.20
2023-05-18T15:16:02.218Z,0.80
2023-05-18T15:18:31.133Z,1.13
2023-05-18T15:20:57.632Z,0.98
2023-05-18T15:23:26.222Z,1.00
2023-05-18T15:25:52.885Z,0.90
2023-05-18T15:28:19.334Z,1.00
2023-05-18T15:30:46.048Z,1.10
2023-05-18T15:33:12.578Z,1.02
2023-05-18T15:35:39.713Z,0.98
2023-05-18T15:38:06.769Z,1.77
2023-05-18T15:40:33.516Z,0.90
2023-05-18T15:43:01.044Z,0.90
2023-05-18T15:45:27.589Z,0.82
2023-05-18T15:47:54.141Z,0.90
2023-05-18T15:50:20.653Z,0.82
2023-05-18T15:52:47.544Z,1.05
2023-05-18T15:55:14.038Z,1.00
2023-05-18T15:57:40.566Z,1.13
2023-05-18T16:00:07.768Z,0.80
2023-05-18T16:02:34.534Z,1.88
2023-05-18T16:05:01.086Z,0.68
2023-05-18T16:07:27.737Z,0.70
2023-05-18T16:09:54.210Z,0.68
2023-05-18T16:12:20.674Z,0.73
2023-05-18T16:14:47.327Z,1.02
2023-05-18T16:17:16.311Z,1.48
2023-05-18T16:19:42.791Z,2.67
2023-05-18T16:22:09.329Z,1.23
2023-05-18T16:24:36.218Z,2.00
2023-05-18T16:27:02.923Z,0.80
2023-05-18T16:29:29.471Z,0.70
2023-05-18T16:31:56.099Z,0.50
2023-05-18T16:34:22.659Z,0.70
2023-05-18T16:36:49.248Z,0.50
2023-05-18T16:39:16.528Z,0.60
2023-05-18T16:41:43.265Z,0.63
2023-05-18T16:44:09.791Z,0.60
2023-05-18T16:46:36.404Z,0.60
2023-05-18T16:49:02.963Z,0.60
2023-05-18T16:51:29.809Z,0.55
2023-05-18T16:53:56.530Z,0.80
2023-05-18T16:56:23.528Z,1.00
2023-05-18T16:58:52.380Z,0.63
2023-05-18T17:01:27.292Z,0.70
2023-05-18T17:03:55.049Z,0.60
2023-05-18T17:06:21.791Z,0.75
2023-05-18T17:08:51.152Z,1.50
2023-05-18T17:11:17.725Z,0.75
2023-05-18T17:13:44.437Z,1.13
2023-05-18T17:16:11.374Z,0.50
2023-05-18T17:18:38.008Z,0.63
2023-05-18T17:21:04.630Z,0.80
2023-05-18T17:23:31.259Z,0.93
2023-05-18T17:26:05.952Z,0.88
2023-05-18T17:28:33.158Z,1.45
2023-05-18T17:30:59.618Z,1.00
2023-05-18T17:33:26.368Z,0.80
2023-05-18T17:35:52.898Z,0.80
2023-05-18T17:38:21.624Z,0.93
2023-05-18T17:40:48.187Z,1.15
2023-05-18T17:43:17.838Z,0.95
2023-05-18T17:45:44.546Z,0.80
2023-05-18T17:48:11.098Z,1.05
2023-05-18T17:50:37.862Z,0.93
2023-05-18T17:53:04.966Z,2.08
2023-05-18T17:55:31.848Z,0.93
2023-05-18T17:58:01.022Z,0.68
2023-05-18T18:00:27.727Z,0.85
2023-05-18T18:02:55.349Z,0.70
2023-05-18T18:05:22.160Z,1.85
2023-05-18T18:07:48.626Z,0.93
2023-05-18T18:10:15.112Z,1.10
2023-05-18T18:12:41.748Z,1.08
2023-05-18T18:15:09.037Z,1.00
2023-05-18T18:17:38.107Z,1.08
2023-05-18T18:20:05.811Z,1.00
2023-05-18T18:22:34.339Z,1.23
2023-05-18T18:25:02.205Z,1.00
2023-05-18T18:27:28.671Z,0.80
2023-05-18T18:29:55.392Z,0.80
2023-05-18T18:32:21.997Z,0.90
2023-05-18T18:34:49.986Z,1.00
2023-05-18T18:37:17.137Z,1.27
2023-05-18T18:39:43.680Z,0.95
2023-05-18T18:42:10.212Z,1.15
2023-05-18T18:44:36.799Z,1.35
2023-05-18T18:47:03.386Z,0.80
2023-05-18T18:49:30.055Z,1.13
2023-05-18T18:52:01.109Z,1.08
2023-05-18T18:56:54.359Z,0.90
2023-05-18T18:59:21.004Z,0.65
2023-05-18T19:01:47.648Z,1.05
2023-05-18T19:04:14.283Z,0.93
2023-05-18T19:06:42.721Z,0.98
2023-05-18T19:09:09.215Z,0.90
2023-05-18T19:11:36.837Z,0.82
2023-05-18T19:14:04.486Z,1.02
2023-05-18T19:16:31.476Z,0.80
2023-05-18T19:18:58.058Z,0.80
2023-05-18T19:21:26.147Z,0.75
2023-05-18T19:23:52.742Z,1.05
2023-05-18T19:26:19.231Z,1.00
2023-05-18T19:28:45.893Z,1.33
2023-05-18T19:31:12.539Z,1.15
2023-05-18T19:33:39.129Z,0.90
2023-05-18T19:36:05.903Z,0.85
2023-05-18T19:38:32.462Z,0.80
2023-05-18T19:40:58.932Z,0.80
2023-05-18T19:43:25.501Z,0.80
2023-05-18T19:45:52.046Z,0.80
2023-05-18T19:48:18.685Z,1.10
2023-05-18T19:50:46.347Z,2.22
2023-05-18T19:53:12.890Z,1.73
2023-05-18T19:55:39.445Z,1.00
2023-05-18T19:58:06.563Z,0.90
2023-05-18T20:00:33.670Z,0.80
2023-05-18T20:03:02.474Z,1.00
2023-05-18T20:05:29.136Z,0.90
2023-05-18T20:07:58.260Z,1.45
2023-05-18T20:10:25.036Z,1.00
2023-05-18T20:12:51.572Z,1.10
2023-05-18T20:15:18.853Z,1.00
2023-05-18T20:17:45.541Z,1.58
2023-05-18T20:20:12.449Z,1.35
2023-05-18T20:22:39.226Z,0.88
2023-05-18T20:25:08.391Z,1.60
2023-05-18T20:27:34.834Z,2.28
2023-05-18T20:30:01.284Z,1.65
2023-05-18T20:32:28.868Z,2.45
2023-05-18T20:34:55.420Z,1.45
2023-05-18T20:37:22.727Z,1.05
2023-05-18T20:39:50.935Z,0.80
2023-05-18T20:42:21.843Z,1.05
2023-05-18T20:44:49.086Z,1.33
2023-05-18T20:47:20.458Z,1.13
2023-05-18T20:49:47.954Z,1.13
2023-05-18T20:52:14.552Z,1.38
2023-05-18T20:54:41.283Z,1.38
2023-05-18T20:57:08.019Z,1.38
2023-05-18T20:59:34.488Z,1.05
2023-05-18T21:02:01.120Z,1.02
2023-05-18T21:04:27.660Z,1.27
2023-05-18T21:06:54.138Z,1.30
2023-05-18T21:09:20.723Z,1.00
2023-05-18T21:11:47.682Z,1.00
2023-05-18T21:14:14.498Z,1.10
2023-05-18T21:16:44.098Z,1.17
2023-05-18T21:19:10.767Z,1.02
2023-05-18T21:21:37.295Z,1.05
2023-05-18T21:24:03.858Z,1.73
2023-05-18T21:26:30.347Z,1.92
2023-05-18T21:28:56.836Z,1.20
2023-05-18T21:31:23.485Z,1.20
2023-05-18T21:33:54.649Z,1.17
2023-05-18T21:36:26.318Z,1.20
2023-05-18T21:38:52.815Z,1.10
2023-05-18T21:41:19.281Z,1.13
2023-05-18T21:43:45.755Z,1.13
2023-05-18T21:46:12.298Z,1.15
2023-05-18T21:48:38.843Z,1.10
2023-05-18T21:51:11.506Z,1.92
2023-05-18T21:53:38.185Z,1.20
2023-05-18T21:56:04.791Z,2.05
2023-05-18T21:58:31.237Z,1.48
2023-05-18T22:00:57.729Z,1.50
2023-05-18T22:03:24.757Z,1.70
2023-05-18T22:05:51.558Z,1.85
2023-05-18T22:08:21.014Z,1.50
2023-05-18T22:10:47.528Z,1.45
2023-05-18T22:13:13.992Z,1.50
2023-05-18T22:15:40.665Z,1.58
2023-05-18T22:18:07.513Z,1.88
2023-05-18T22:20:34.307Z,1.27
2023-05-18T22:23:01.039Z,1.67
2023-05-18T22:25:29.840Z,2.08
2023-05-18T22:27:56.748Z,1.45
2023-05-18T22:30:27.833Z,1.40
2023-05-18T22:32:54.722Z,1.60
2023-05-18T22:35:21.326Z,1.75
2023-05-18T22:37:47.857Z,1.58
2023-05-18T22:40:14.464Z,1.80
2023-05-18T22:42:43.698Z,1.58
2023-05-18T22:45:11.633Z,1.90
2023-05-18T22:47:39.064Z,1.85
2023-05-18T22:50:07.077Z,1.95
2023-05-18T22:52:35.093Z,1.65
2023-05-18T22:55:01.779Z,1.83
2023-05-18T22:57:28.256Z,2.15
2023-05-18T22:59:54.734Z,2.20
2023-05-18T23:02:21.189Z,1.60
2023-05-18T23:04:47.781Z,1.60
2023-05-18T23:07:14.495Z,1.92
2023-05-18T23:09:40.962Z,1.52
2023-05-18T23:12:07.776Z,2.05
2023-05-18T23:14:34.229Z,1.60
2023-05-18T23:17:00.857Z,2.65
2023-05-18T23:19:27.547Z,2.92
2023-05-18T23:21:54.090Z,1.88
2023-05-18T23:24:20.902Z,2.40
2023-05-18T23:26:47.655Z,2.50
2023-05-18T23:29:14.651Z,1.90
2023-05-18T23:31:41.163Z,2.55
2023-05-18T23:34:07.838Z,2.00
2023-05-18T23:36:37.263Z,1.88
2023-05-18T23:39:03.918Z,2.03
2023-05-18T23:41:31.297Z,2.15
2023-05-18T23:43:58.164Z,2.17
2023-05-18T23:46:25.059Z,1.90
2023-05-18T23:48:52.485Z,2.17
2023-05-18T23:51:22.449Z,2.33
2023-05-18T23:53:49.957Z,2.03
2023-05-18T23:56:16.800Z,2.15
2023-05-18T23:58:46.871Z,3.20
